createdAt,value
2023-01-04T00:00:43.242Z,99074.00
2023-01-04T00:03:44.935Z,99074.88
2023-01-04T00:06:48.094Z,99067.88
2023-01-04T00:09:49.768Z,99065.25
2023-01-04T00:12:51.276Z,99064.41
2023-01-04T00:15:52.899Z,99048.47
2023-01-04T00:18:55.201Z,99038.00
2023-01-04T00:21:58.429Z,99045.91
2023-01-04T00:25:00.043Z,99038.84
2023-01-04T00:28:01.642Z,99026.56
2023-01-04T00:31:04.399Z,99033.69
2023-01-04T00:34:06.918Z,99019.53
2023-01-04T00:37:10.038Z,99009.00
2023-01-04T00:40:12.188Z,99001.06
2023-01-04T00:43:13.815Z,98995.75
2023-01-04T00:46:15.592Z,98989.59
2023-01-04T00:49:17.157Z,98980.81
2023-01-04T00:52:20.058Z,98978.13
2023-01-04T00:55:21.760Z,98967.53
2023-01-04T00:58:23.361Z,98963.16
2023-01-04T01:01:25.233Z,98956.97
2023-01-04T01:04:27.029Z,98957.88
2023-01-04T01:07:30.196Z,98957.03
2023-01-04T01:10:34.264Z,98947.31
2023-01-04T01:13:36.468Z,98950.91
2023-01-04T01:16:54.428Z,98949.16
2023-01-04T01:19:57.396Z,98937.72
2023-01-04T01:23:00.319Z,98941.19
2023-01-04T01:26:02.483Z,98920.03
2023-01-04T01:29:04.190Z,98927.00
2023-01-04T01:32:06.080Z,98909.34
2023-01-04T01:35:07.898Z,98910.16
2023-01-04T01:38:10.939Z,98890.75
2023-01-04T01:41:17.358Z,98894.22
2023-01-04T01:44:37.904Z,98888.88
2023-01-04T01:47:41.888Z,98887.00
2023-01-04T01:50:47.157Z,98882.59
2023-01-04T01:53:54.842Z,98889.63
2023-01-04T01:56:58.171Z,98884.31
2023-01-04T02:00:02.264Z,98873.72
2023-01-04T02:03:18.459Z,98870.19
2023-01-04T02:06:24.080Z,98860.41
2023-01-04T02:09:27.238Z,98851.47
2023-01-04T02:12:29.383Z,98842.63
2023-01-04T02:15:35.849Z,98838.09
2023-01-04T02:18:40.511Z,98831.00
2023-01-04T02:21:47.816Z,98822.22
2023-01-04T02:25:03.009Z,98812.50
2023-01-04T02:28:09.780Z,98814.28
2023-01-04T02:31:25.272Z,98793.25
2023-01-04T02:34:32.319Z,98777.44
2023-01-04T02:37:38.688Z,98761.63
2023-01-04T02:40:44.168Z,98757.19
2023-01-04T02:44:08.947Z,98753.59
2023-01-04T02:47:14.328Z,98740.25
2023-01-04T02:50:33.604Z,98746.25
2023-01-04T02:53:36.648Z,98730.16
2023-01-04T02:56:45.823Z,98721.28
2023-01-04T03:00:08.416Z,98703.44
2023-01-04T03:03:36.113Z,98700.88
2023-01-04T03:06:41.112Z,98708.84
2023-01-04T03:09:45.775Z,98710.72
2023-01-04T03:12:50.705Z,98702.84
2023-01-04T03:15:54.085Z,98685.22
2023-01-04T03:18:58.497Z,98689.72
2023-01-04T03:22:00.428Z,98685.34
2023-01-04T03:25:21.765Z,98685.41
2023-01-04T03:28:43.618Z,98665.97
2023-01-04T03:32:07.099Z,98650.94
2023-01-04T03:35:28.100Z,98640.41
2023-01-04T03:38:52.514Z,98638.69
2023-01-04T03:42:17.512Z,98628.16
2023-01-04T03:45:41.261Z,98621.94
2023-01-04T03:48:46.239Z,98614.91
2023-01-04T03:51:51.060Z,98614.00
2023-01-04T03:54:53.941Z,98608.72
2023-01-04T03:57:56.441Z,98595.53
2023-01-04T04:01:03.947Z,98586.72
2023-01-04T04:04:24.460Z,98606.06
2023-01-04T04:07:46.186Z,98589.34
2023-01-04T04:10:47.829Z,98583.13
2023-01-04T04:13:50.015Z,98581.34
2023-01-04T04:16:51.850Z,98576.91
2023-01-04T04:19:53.459Z,98576.88
2023-01-04T04:22:56.457Z,98566.28
2023-01-04T04:25:58.104Z,98565.38
2023-01-04T04:28:59.830Z,98553.09
2023-01-04T04:32:01.529Z,98550.38
2023-01-04T04:35:03.409Z,98544.22
2023-01-04T04:38:06.626Z,98534.53
2023-01-04T04:41:28.438Z,98538.00
2023-01-04T04:44:30.140Z,98532.63
2023-01-04T04:47:31.681Z,98536.13
2023-01-04T04:50:33.246Z,98516.75
2023-01-04T04:53:36.211Z,98517.56
2023-01-04T04:56:37.868Z,98521.13
2023-01-04T04:59:39.557Z,98513.19
2023-01-04T05:02:41.368Z,98504.34
2023-01-04T05:05:43.072Z,98497.31
2023-01-04T05:08:46.378Z,98496.38
2023-01-04T05:12:06.829Z,98491.97
2023-01-04T05:15:08.779Z,98485.75
2023-01-04T05:18:11.312Z,98467.19
2023-01-04T05:21:16.886Z,98463.53
2023-01-04T05:24:22.838Z,98460.88
2023-01-04T05:27:24.391Z,98445.06
2023-01-04T05:30:44.623Z,98450.28
2023-01-04T05:33:46.234Z,98431.72
2023-01-04T05:36:47.868Z,98438.72
2023-01-04T05:39:50.743Z,98424.59
2023-01-04T05:42:52.490Z,98420.97
2023-01-04T05:45:55.716Z,98410.38
2023-01-04T05:48:57.558Z,98418.28
2023-01-04T05:51:59.191Z,98411.19
2023-01-04T05:55:02.102Z,98397.97
2023-01-04T05:58:03.796Z,98410.22
2023-01-04T06:01:07.701Z,98398.72
2023-01-04T06:04:09.463Z,98409.31
2023-01-04T06:07:11.398Z,98430.50
2023-01-04T06:10:14.701Z,98386.41
2023-01-04T06:13:16.195Z,98411.91
2023-01-04T06:16:17.835Z,98403.09
2023-01-04T06:19:19.436Z,98389.00
2023-01-04T06:22:21.193Z,98391.59
2023-01-04T06:25:24.114Z,98406.50
2023-01-04T06:28:25.790Z,98375.53
2023-01-04T06:31:27.537Z,98388.56
2023-01-04T06:34:31.449Z,98385.69
2023-01-04T06:37:33.236Z,98370.56
2023-01-04T06:40:36.262Z,98367.75
2023-01-04T06:43:37.804Z,98367.50
2023-01-04T06:46:41.333Z,98359.34
2023-01-04T06:49:43.010Z,98344.13
2023-01-04T06:52:44.681Z,98357.94
2023-01-04T06:55:47.751Z,98353.44
2023-01-04T06:58:49.317Z,98341.78
2023-01-04T07:01:51.013Z,98353.09
2023-01-04T07:04:52.718Z,98347.41
2023-01-04T07:07:54.408Z,98340.25
2023-01-04T07:10:57.548Z,98338.16
2023-01-04T07:13:59.295Z,98345.22
2023-01-04T07:17:00.833Z,98356.69
2023-01-04T07:20:04.043Z,98339.94
2023-01-04T07:23:05.893Z,98345.97
2023-01-04T07:26:09.165Z,98337.16
2023-01-04T07:29:17.161Z,98347.78
2023-01-04T07:32:18.930Z,98341.47
2023-01-04T07:35:21.029Z,98327.38
2023-01-04T07:38:23.506Z,98348.56
2023-01-04T07:41:26.525Z,98329.97
2023-01-04T07:44:28.507Z,98322.81
2023-01-04T07:47:30.171Z,98317.41
2023-01-04T07:50:32.143Z,98319.94
2023-01-04T07:53:34.080Z,98322.44
2023-01-04T07:56:37.231Z,98318.69
2023-01-04T07:59:39.001Z,98328.19
2023-01-04T08:02:40.644Z,98334.28
2023-01-04T08:05:42.563Z,98335.50
2023-01-04T08:08:44.699Z,98331.53
2023-01-04T08:11:47.736Z,98328.47
2023-01-04T08:14:49.697Z,98326.19
2023-01-04T08:17:51.358Z,98326.72
2023-01-04T08:21:01.383Z,98330.25
2023-01-04T08:24:03.117Z,98322.13
2023-01-04T08:27:07.922Z,98316.53
2023-01-04T08:30:09.948Z,98316.44
2023-01-04T08:33:14.849Z,98322.50
2023-01-04T08:36:24.242Z,98317.91
2023-01-04T08:39:29.699Z,98331.19
2023-01-04T08:42:32.626Z,98325.09
2023-01-04T08:45:34.255Z,98334.63
2023-01-04T08:48:36.177Z,98321.13
2023-01-04T08:51:37.880Z,98322.00
2023-01-04T08:54:39.409Z,98322.00
2023-01-04T08:57:42.363Z,98316.69
2023-01-04T09:00:44.101Z,98297.91
2023-01-04T09:03:46.179Z,98293.44
2023-01-04T09:06:47.908Z,98288.88
2023-01-04T09:09:49.483Z,98293.94
2023-01-04T09:12:52.428Z,98307.13
2023-01-04T09:15:53.995Z,98298.16
2023-01-04T09:18:56.334Z,98321.06
2023-01-04T09:21:58.526Z,98305.81
2023-01-04T09:25:00.308Z,98308.34
2023-01-04T09:28:03.368Z,98305.28
2023-01-04T09:31:05.731Z,98283.91
2023-01-04T09:34:17.070Z,98292.53
2023-01-04T09:37:19.201Z,98271.16
2023-01-04T09:40:22.999Z,98278.19
2023-01-04T09:43:36.413Z,98267.56
2023-01-04T09:46:40.905Z,98286.97
2023-01-04T09:49:45.314Z,98279.22
2023-01-04T09:52:51.765Z,98257.97
2023-01-04T09:55:55.978Z,98256.25
2023-01-04T09:59:00.325Z,98268.88
2023-01-04T10:02:04.268Z,98260.84
2023-01-04T10:05:07.013Z,98251.13
2023-01-04T10:08:13.943Z,98255.44
2023-01-04T10:11:22.476Z,98272.16
2023-01-04T10:14:34.815Z,98250.88
2023-01-04T10:18:52.022Z,98238.25
2023-01-04T10:21:32.063Z,98237.25
2023-01-04T10:24:41.554Z,98232.72
2023-01-04T10:27:48.337Z,98225.03
2023-01-04T10:30:55.048Z,98215.31
2023-01-04T10:34:00.002Z,98212.66
2023-01-04T10:37:05.164Z,98217.13
2023-01-04T10:40:13.172Z,98209.25
2023-01-04T10:43:19.237Z,98209.25
2023-01-04T10:46:25.400Z,98203.28
2023-01-04T10:49:29.683Z,98200.41
2023-01-04T10:52:33.337Z,98185.31
2023-01-04T10:55:39.393Z,98201.16
2023-01-04T10:58:44.144Z,98186.16
2023-01-04T11:01:50.746Z,98181.78
2023-01-04T11:04:55.495Z,98184.44
2023-01-04T11:08:00.120Z,98174.59
2023-01-04T11:11:04.392Z,98165.53
2023-01-04T11:14:06.224Z,98154.75
2023-01-04T11:17:10.472Z,98170.78
2023-01-04T11:20:12.260Z,98156.53
2023-01-04T11:23:14.735Z,98160.75
2023-01-04T11:26:19.147Z,98163.47
2023-01-04T11:29:27.179Z,98161.66
2023-01-04T11:32:34.417Z,98156.28
2023-01-04T11:35:42.177Z,98162.31
2023-01-04T11:38:55.095Z,98143.63
2023-01-04T11:42:02.578Z,98135.56
2023-01-04T11:45:05.647Z,98129.34
2023-01-04T11:48:15.089Z,98137.97
2023-01-04T11:51:18.852Z,98137.09
2023-01-04T11:54:20.532Z,98145.09
2023-01-04T11:57:22.142Z,98125.47
2023-01-04T12:00:24.131Z,98111.22
2023-01-04T12:03:28.455Z,98103.94
2023-01-04T12:06:36.607Z,98093.22
2023-01-04T12:09:38.198Z,98110.97
2023-01-04T12:12:39.861Z,98107.31
2023-01-04T12:15:47.173Z,98087.66
2023-01-04T12:18:50.451Z,98089.53
2023-01-04T12:21:53.711Z,98070.06
2023-01-04T12:25:00.549Z,98087.91
2023-01-04T12:28:02.684Z,98080.72
2023-01-04T12:34:39.655Z,98072.44
2023-01-04T12:37:49.290Z,98069.00
2023-01-04T12:40:55.268Z,98066.34
2023-01-04T12:43:56.786Z,98067.13
2023-01-04T12:50:20.325Z,98061.56
2023-01-04T12:53:36.736Z,98048.97
2023-01-04T12:56:57.101Z,98040.09
2023-01-04T13:00:01.478Z,98043.53
2023-01-04T13:03:21.810Z,98031.94
2023-01-04T13:06:24.035Z,98034.44
2023-01-04T13:09:27.164Z,98027.25
2023-01-04T13:12:52.989Z,98028.03
2023-01-04T13:16:01.755Z,98019.91
2023-01-04T13:19:04.256Z,98025.06
2023-01-04T13:22:10.431Z,98030.41
2023-01-04T13:25:13.508Z,98005.50
2023-01-04T13:28:17.320Z,98016.16
2023-01-04T13:31:20.714Z,98028.44
2023-01-04T13:34:24.423Z,98011.47
2023-01-04T13:37:27.762Z,98011.31
2023-01-04T13:40:32.620Z,98010.53
2023-01-04T13:43:45.295Z,98020.16
2023-01-04T13:46:53.734Z,98012.09
2023-01-04T13:49:55.514Z,98008.56
2023-01-04T13:53:06.779Z,97996.91
2023-01-04T13:56:17.216Z,97996.59
2023-01-04T13:59:20.498Z,97983.31
2023-01-04T14:02:23.733Z,97976.00
2023-01-04T14:05:25.426Z,97972.31
2023-01-04T14:08:30.562Z,97979.53
2023-01-04T14:11:51.827Z,97985.50
2023-01-04T14:15:03.870Z,97948.84
2023-01-04T14:18:24.041Z,97965.66
2023-01-04T14:21:33.658Z,97971.84
2023-01-04T14:28:12.740Z,97971.06
2023-01-04T14:31:19.936Z,97955.13
2023-01-04T14:34:23.023Z,97954.06
2023-01-04T14:37:25.010Z,97956.56
2023-01-04T14:40:27.490Z,97987.56
2023-01-04T14:43:32.428Z,97972.22
2023-01-04T14:46:34.280Z,97980.13
2023-01-04T14:49:37.339Z,97953.16
2023-01-04T14:52:39.082Z,97974.06
2023-01-04T14:55:40.634Z,97971.84
2023-01-04T14:58:42.842Z,97967.22
2023-01-04T15:01:44.805Z,97963.50
2023-01-04T15:04:47.862Z,97978.50
2023-01-04T15:07:49.657Z,97969.81
2023-01-04T15:10:57.902Z,97975.94
2023-01-04T15:14:01.648Z,97979.53
2023-01-04T15:17:03.236Z,97951.84
2023-01-04T15:20:07.077Z,97979.81
2023-01-04T15:23:08.984Z,97974.56
2023-01-04T15:26:11.710Z,97975.25
2023-01-04T15:29:13.423Z,97964.69
2023-01-04T15:32:15.053Z,97992.97
2023-01-04T15:35:18.132Z,97947.31
2023-01-04T15:38:19.745Z,97960.56
2023-01-04T15:41:40.107Z,97966.06
2023-01-04T15:44:42.832Z,97956.09
2023-01-04T15:47:44.334Z,97941.13
2023-01-04T15:50:47.289Z,97945.22
2023-01-04T15:53:50.127Z,97929.31
2023-01-04T15:56:51.789Z,97948.84
2023-01-04T15:59:53.554Z,97947.03
2023-01-04T16:02:56.505Z,97936.28
2023-01-04T16:06:03.513Z,97935.28
2023-01-04T16:09:05.617Z,97929.84
2023-01-04T16:12:26.267Z,97941.38
2023-01-04T16:15:27.939Z,97933.88
2023-01-04T16:18:32.480Z,97934.06
2023-01-04T16:21:35.724Z,97943.88
2023-01-04T16:25:09.458Z,97950.06
2023-01-04T16:27:58.766Z,97946.72
2023-01-04T16:31:00.732Z,97949.09
2023-01-04T16:34:02.510Z,97932.16
2023-01-04T16:37:05.584Z,97943.59
2023-01-04T16:40:08.989Z,97945.66
2023-01-04T16:43:11.058Z,97933.19
2023-01-04T16:46:20.707Z,97925.09
2023-01-04T16:49:22.327Z,97910.50
2023-01-04T16:52:27.364Z,97928.53
2023-01-04T16:55:29.096Z,97929.41
2023-01-04T16:58:30.840Z,97939.66
2023-01-04T17:01:33.415Z,97935.47
2023-01-04T17:04:35.256Z,97933.88
2023-01-04T17:07:38.221Z,97937.34
2023-01-04T17:10:39.835Z,97934.72
2023-01-04T17:13:41.484Z,97929.41
2023-01-04T17:16:43.993Z,97936.44
2023-01-04T17:19:45.673Z,97931.13
2023-01-04T17:22:50.081Z,97943.19
2023-01-04T17:25:51.719Z,97937.28
2023-01-04T17:28:53.319Z,97933.88
2023-01-04T17:31:55.076Z,97935.59
2023-01-04T17:34:58.207Z,97951.53
2023-01-04T17:38:01.299Z,97946.25
2023-01-04T17:41:06.505Z,97940.91
2023-01-04T17:44:08.174Z,97936.53
2023-01-04T17:47:09.781Z,97923.19
2023-01-04T17:50:11.356Z,97907.09
2023-01-04T17:53:14.439Z,97925.97
2023-01-04T17:56:17.577Z,97913.47
2023-01-04T17:59:19.250Z,97914.34
2023-01-04T18:02:20.885Z,97913.28
2023-01-04T18:05:22.583Z,97908.84
2023-01-04T18:08:25.496Z,97908.78
2023-01-04T18:11:27.499Z,97907.94
2023-01-04T18:14:29.200Z,97905.56
2023-01-04T18:17:30.855Z,97908.34
2023-01-04T18:20:32.435Z,97913.47
2023-01-04T18:23:35.461Z,97918.72
2023-01-04T18:27:10.831Z,97910.81
2023-01-04T18:29:58.690Z,97908.91
2023-01-04T18:33:00.372Z,97908.06
2023-01-04T18:36:02.338Z,97909.78
2023-01-04T18:39:05.302Z,97901.00
2023-01-04T18:42:06.970Z,97887.00
2023-01-04T18:45:08.999Z,97899.56
2023-01-04T18:48:10.569Z,97887.28
2023-01-04T18:51:12.912Z,97893.63
2023-01-04T18:54:20.984Z,97890.47
2023-01-04T18:57:22.506Z,97870.13
2023-01-04T19:00:29.977Z,97890.72
2023-01-04T19:03:32.804Z,97880.91
2023-01-04T19:06:34.491Z,97886.13
2023-01-04T19:09:37.612Z,97896.47
2023-01-04T19:12:39.258Z,97896.38
2023-01-04T19:15:47.392Z,97896.56
2023-01-04T19:18:49.311Z,97896.41
2023-01-04T19:21:51.074Z,97896.72
2023-01-04T19:24:54.080Z,97911.38
2023-01-04T19:27:55.845Z,97894.66
2023-01-04T19:30:57.652Z,97897.25
2023-01-04T19:33:59.261Z,97907.13
2023-01-04T19:37:01.009Z,97906.91
2023-01-04T19:40:04.562Z,97895.78
2023-01-04T19:43:06.565Z,97895.78
2023-01-04T19:46:09.088Z,97884.97
2023-01-04T19:49:15.130Z,97879.53
2023-01-04T19:52:17.264Z,97886.50
2023-01-04T19:55:20.272Z,97876.78
2023-01-04T19:58:21.943Z,97875.41
2023-01-04T20:01:23.913Z,97869.81
2023-01-04T20:04:27.978Z,97880.38
2023-01-04T20:07:29.604Z,97879.69
2023-01-04T20:10:32.642Z,97886.84
2023-01-04T20:13:34.270Z,97875.22
2023-01-04T20:16:35.960Z,97882.38
2023-01-04T20:19:37.581Z,97879.88
2023-01-04T20:22:39.080Z,97898.47
2023-01-04T20:25:42.746Z,97911.09
2023-01-04T20:28:46.035Z,97903.88
2023-01-04T20:31:47.749Z,97914.69
2023-01-04T20:34:49.447Z,97923.66
2023-01-04T20:37:54.579Z,97924.59
2023-01-04T20:41:01.395Z,97895.19
2023-01-04T20:44:03.411Z,97928.03
2023-01-04T20:47:05.249Z,97923.81
2023-01-04T20:50:09.434Z,97927.34
2023-01-04T20:53:11.627Z,97940.94
2023-01-04T20:56:15.822Z,97938.94
2023-01-04T20:59:20.107Z,97932.75
2023-01-04T21:02:21.900Z,97932.06
2023-01-04T21:05:25.658Z,97936.81
2023-01-04T21:08:27.253Z,97952.75
2023-01-04T21:11:30.321Z,97945.50
2023-01-04T21:14:33.479Z,97948.19
2023-01-04T21:17:35.033Z,97936.28
2023-01-04T21:20:38.787Z,97933.78
2023-01-04T21:23:41.024Z,97935.22
2023-01-04T21:26:44.079Z,97941.53
2023-01-04T21:29:45.662Z,97944.75
2023-01-04T21:32:47.457Z,97970.13
2023-01-04T21:35:49.012Z,97954.91
2023-01-04T21:38:51.103Z,97970.97
2023-01-04T21:41:54.264Z,97953.03
2023-01-04T21:44:55.747Z,97948.66
2023-01-04T21:47:58.111Z,97966.25
2023-01-04T21:50:59.734Z,97964.53
2023-01-04T21:54:01.825Z,97954.66
2023-01-04T21:57:04.893Z,97964.72
2023-01-04T22:00:07.102Z,97961.03
2023-01-04T22:03:08.933Z,97964.22
2023-01-04T22:06:12.431Z,97959.03
2023-01-04T22:09:14.012Z,97941.44
2023-01-04T22:12:17.037Z,97940.50
2023-01-04T22:15:18.589Z,97946.66
2023-01-04T22:18:20.267Z,97951.00
2023-01-04T22:21:25.218Z,97959.13
2023-01-04T22:24:26.846Z,97944.81
2023-01-04T22:27:29.942Z,97958.91
2023-01-04T22:30:31.727Z,97950.91
2023-01-04T22:33:33.506Z,97963.28
2023-01-04T22:36:35.110Z,97974.81
2023-01-04T22:39:36.774Z,97952.72
2023-01-04T22:42:40.063Z,97970.03
2023-01-04T22:45:41.599Z,97950.25
2023-01-04T22:48:43.378Z,97983.34
2023-01-04T22:51:45.323Z,97957.75
2023-01-04T22:54:47.328Z,97960.69
2023-01-04T22:57:50.391Z,97957.94
2023-01-04T23:00:52.098Z,97976.22
2023-01-04T23:03:55.188Z,97973.34
2023-01-04T23:06:57.027Z,97966.28
2023-01-04T23:09:58.660Z,97978.28
2023-01-04T23:13:01.675Z,97978.41
2023-01-04T23:16:05.343Z,97962.69
2023-01-04T23:19:07.433Z,97977.78
2023-01-04T23:22:09.173Z,97979.69
2023-01-04T23:25:11.247Z,97968.19
2023-01-04T23:28:14.128Z,97991.09
2023-01-04T23:31:17.495Z,97977.78
2023-01-04T23:34:19.093Z,97963.63
2023-01-04T23:37:20.786Z,97975.22
2023-01-04T23:40:22.355Z,97976.94
2023-01-04T23:43:25.321Z,97974.69
2023-01-04T23:46:26.837Z,97972.03
2023-01-04T23:49:29.669Z,97967.72
2023-01-04T23:52:31.200Z,97964.72
2023-01-04T23:55:32.759Z,97958.84
2023-01-04T23:58:35.692Z,97967.78
